Time;durP1;ratioP1;P1;durP2;ratioP2;P2;SDS_P1;SDS_P2;PMS_P1;PMS_P2;Temp;Humidity;BMP_temperature;BMP_pressure;BME280_temperature;BME280_humidity;BME280_pressure;Samples;Min_cycle;Max_cycle;Signal;HPM_P1;HPM_P2
2022/02/20 00:02:11;;;;;;;6.50;1.88;;;6.30;99.90;;;7.08;100.00;99515.38;5084185;28;20059;-78
2022/02/20 00:04:42;;;;;;;10.77;2.80;;;6.30;99.90;;;7.06;100.00;99508.59;5086785;28;20028;-77
2022/02/20 00:07:11;;;;;;;7.53;2.10;;;6.40;99.90;;;7.12;100.00;99513.50;5081095;28;20029;-76
2022/02/20 00:09:39;;;;;;;10.50;2.20;;;6.40;99.90;;;7.22;100.00;99528.78;5070494;28;20081;-78
2022/02/20 00:12:05;;;;;;;9.45;2.95;;;6.50;99.90;;;7.37;100.00;99539.84;5090362;28;20032;-77
2022/02/20 00:14:31;;;;;;;10.05;2.53;;;6.50;99.90;;;7.48;100.00;99551.16;5069527;28;20091;-77
2022/02/20 00:16:57;;;;;;;9.30;2.17;;;6.60;99.90;;;7.41;100.00;99557.41;5083072;28;20025;-78
2022/02/20 00:19:23;;;;;;;16.48;3.65;;;6.60;99.90;;;7.31;100.00;99560.75;5080020;28;20032;-77
2022/02/20 00:21:48;;;;;;;10.85;3.00;;;6.60;99.90;;;7.38;100.00;99572.00;5078084;28;20037;-79
2022/02/20 00:24:17;;;;;;;11.82;3.80;;;6.60;99.90;;;7.31;100.00;99585.75;5079576;28;20055;-76
2022/02/20 00:26:43;;;;;;;9.80;4.57;;;6.60;99.90;;;7.28;100.00;99596.75;5063303;28;20028;-77
2022/02/20 00:29:09;;;;;;;16.13;4.90;;;6.60;99.90;;;7.28;100.00;99596.75;5072531;28;20101;-77
2022/02/20 00:31:34;;;;;;;12.02;5.05;;;6.60;99.90;;;7.19;100.00;99599.72;5076084;28;20033;-77
2022/02/20 00:34:06;;;;;;;14.18;5.45;;;6.50;99.90;;;7.12;100.00;99620.97;5090822;28;20118;-77
2022/02/20 00:36:44;;;;;;;8.85;4.07;;;6.60;99.90;;;7.09;100.00;99630.84;5088234;28;20037;-76
2022/02/20 00:39:10;;;;;;;16.77;4.47;;;6.50;99.90;;;7.08;100.00;99645.06;5058167;28;20411;-77
2022/02/20 00:41:36;;;;;;;13.10;3.40;;;6.50;99.90;;;6.97;100.00;99639.25;5059320;28;20029;-77
2022/02/20 00:44:02;;;;;;;10.85;3.25;;;6.40;99.90;;;7.01;100.00;99656.78;5078558;28;20056;-77
2022/02/20 00:46:28;;;;;;;6.70;3.03;;;6.50;99.90;;;7.02;100.00;99661.19;5076541;28;20025;-77
2022/02/20 00:48:53;;;;;;;5.20;2.20;;;6.40;99.90;;;7.00;100.00;99673.81;5075258;28;20454;-76
2022/02/20 00:51:19;;;;;;;10.35;2.78;;;6.40;99.90;;;6.92;100.00;99688.66;5039588;28;20021;-77
2022/02/20 00:53:45;;;;;;;7.85;2.55;;;6.40;99.90;;;6.90;100.00;99689.03;5039890;28;20444;-79
2022/02/20 00:56:11;;;;;;;9.27;3.10;;;6.30;99.90;;;6.73;100.00;99686.59;5055133;28;20067;-77
2022/02/20 00:58:37;;;;;;;7.63;2.67;;;6.20;99.90;;;6.78;100.00;99700.19;5038245;28;20484;-77
2022/02/20 01:01:04;;;;;;;14.07;3.95;;;6.20;99.90;;;6.92;99.15;99700.59;5056971;28;20021;-77
2022/02/20 01:03:30;;;;;;;11.20;3.28;;;6.20;99.90;;;6.88;99.53;99714.38;5056108;28;20488;-77
2022/02/20 01:05:56;;;;;;;10.38;2.70;;;6.20;99.90;;;6.81;99.76;99722.50;5055635;28;20045;-78
2022/02/20 01:08:25;;;;;;;5.40;2.10;;;6.20;99.90;;;6.71;98.19;99734.09;5055909;28;20087;-75
2022/02/20 01:10:51;;;;;;;7.32;2.75;;;6.10;99.90;;;6.60;99.24;99705.28;5038535;28;20124;-78
2022/02/20 01:13:17;;;;;;;9.07;2.17;;;6.10;99.90;;;6.64;99.54;99741.44;5036449;28;20068;-76
2022/02/20 01:15:49;;;;;;;9.68;2.47;;;6.10;99.90;;;6.60;99.54;99746.91;5035603;28;20033;-77
2022/02/20 01:18:18;;;;;;;4.90;1.30;;;6.00;99.90;;;6.50;99.18;99766.81;5036423;28;20513;-77
2022/02/20 01:20:43;;;;;;;6.70;1.30;;;5.90;99.90;;;6.44;99.34;99762.69;5053787;28;20159;-76
2022/02/20 01:23:09;;;;;;;9.23;1.50;;;5.80;99.90;;;6.51;98.59;99756.53;5054120;28;20040;-75
2022/02/20 01:25:38;;;;;;;5.30;1.15;;;5.80;99.90;;;6.40;96.83;99774.81;5053598;28;20024;-77
2022/02/20 01:28:04;;;;;;;7.60;1.90;;;5.80;99.90;;;6.38;97.53;99769.63;5056137;28;20037;-77
2022/02/20 01:30:30;;;;;;;5.47;1.35;;;5.80;99.90;;;6.34;96.38;99774.25;5055604;28;20036;-78
2022/02/20 01:32:59;;;;;;;9.60;1.73;;;5.80;99.90;;;6.36;94.55;99771.94;5062147;28;20475;-76
2022/02/20 01:35:28;;;;;;;3.08;1.00;;;5.90;99.90;;;6.39;94.71;99785.09;5073870;28;20047;-76
2022/02/20 01:37:54;;;;;;;5.95;2.08;;;5.80;99.90;;;6.45;95.18;99780.94;5056219;28;20129;-76
2022/02/20 01:40:20;;;;;;;4.00;1.55;;;5.80;99.90;;;6.44;95.29;99790.41;5074590;28;20453;-77
2022/02/20 01:42:46;;;;;;;5.53;2.08;;;5.80;99.90;;;6.41;95.83;99785.56;5073141;28;20483;-77
2022/02/20 01:45:16;;;;;;;5.93;2.03;;;5.80;99.90;;;6.33;98.71;99792.03;5055653;28;20024;-77
2022/02/20 01:47:43;;;;;;;6.85;2.15;;;5.70;99.90;;;6.34;100.00;99799.22;5072316;28;20483;-76
2022/02/20 01:50:11;;;;;;;8.68;2.55;;;5.70;99.90;;;6.26;100.00;99811.28;5061340;28;20135;-77
2022/02/20 01:52:38;;;;;;;10.23;2.22;;;5.60;99.90;;;6.24;100.00;99819.09;5053582;28;20496;-77
2022/02/20 01:55:07;;;;;;;6.03;1.92;;;5.60;99.90;;;6.13;100.00;99813.22;5054146;28;20365;-77
2022/02/20 01:57:42;;;;;;;5.45;1.50;;;5.60;99.90;;;6.15;100.00;99812.88;5053765;28;20025;-77
2022/02/20 02:00:16;;;;;;;8.93;1.80;;;5.50;99.90;;;6.15;100.00;99837.84;5052958;28;20367;-76
2022/02/20 02:02:44;;;;;;;6.15;1.55;;;5.50;99.90;;;6.24;100.00;99849.63;5034742;28;20056;-77
2022/02/20 02:05:13;;;;;;;5.65;1.65;;;5.50;99.90;;;6.26;100.00;99861.97;5052261;28;20416;-76
2022/02/20 02:07:39;;;;;;;12.20;2.92;;;5.50;99.90;;;6.20;100.00;99868.09;5053665;28;20049;-75
2022/02/20 02:10:07;;;;;;;6.45;1.52;;;5.50;99.90;;;6.20;100.00;99874.44;5055189;28;20127;-75
2022/02/20 02:12:38;;;;;;;6.18;1.63;;;5.40;99.90;;;6.22;100.00;99879.66;5053288;28;20054;-77
2022/02/20 02:15:09;;;;;;;5.78;1.80;;;5.50;99.90;;;6.28;100.00;99881.84;5035272;28;20033;-77
2022/02/20 02:17:41;;;;;;;6.18;1.45;;;5.50;99.90;;;6.30;99.67;99885.06;5054166;28;20040;-77
2022/02/20 02:20:10;;;;;;;9.30;1.75;;;5.50;99.90;;;6.32;99.41;99893.06;5052637;28;20028;-76
2022/02/20 02:22:42;;;;;;;5.55;1.73;;;5.50;99.90;;;6.14;100.00;99886.94;5052771;28;20029;-76
2022/02/20 02:25:09;;;;;;;8.35;1.80;;;5.50;99.90;;;6.27;100.00;99904.38;5053533;28;20095;-76
2022/02/20 02:27:35;;;;;;;9.93;2.47;;;5.50;99.90;;;6.12;100.00;99921.72;5034903;28;20032;-77
2022/02/20 02:30:10;;;;;;;7.43;2.03;;;5.50;99.90;;;6.14;100.00;99916.63;5033965;28;20021;-75
2022/02/20 02:32:37;;;;;;;6.20;2.00;;;5.60;99.90;;;6.19;100.00;99930.28;5033951;28;20032;-77
2022/02/20 02:35:04;;;;;;;7.88;2.15;;;5.50;99.90;;;6.14;99.93;99936.03;5052677;28;20484;-77
2022/02/20 02:37:30;;;;;;;10.05;2.10;;;5.50;99.90;;;6.22;99.43;99940.66;5033982;28;20049;-75
2022/02/20 02:39:55;;;;;;;7.78;3.20;;;5.50;99.90;;;6.16;100.00;99944.81;5034604;28;20029;-77
2022/02/20 02:42:21;;;;;;;7.18;2.25;;;5.50;99.90;;;6.15;99.79;99946.78;5034605;28;20496;-77
2022/02/20 02:44:47;;;;;;;9.63;2.30;;;5.50;99.90;;;6.11;100.00;99954.16;5052430;28;20396;-77
2022/02/20 02:47:13;;;;;;;7.68;2.35;;;5.60;99.90;;;6.16;100.00;99958.69;5052021;28;20028;-76
2022/02/20 02:49:40;;;;;;;6.10;2.30;;;5.50;99.90;;;6.18;100.00;99948.06;5059365;28;20056;-77
2022/02/20 02:52:06;;;;;;;10.65;2.22;;;5.50;99.90;;;6.12;100.00;99960.53;5054490;28;20031;-77
2022/02/20 02:54:33;;;;;;;8.80;2.10;;;5.50;99.90;;;6.07;100.00;99966.31;5054347;28;20029;-77
2022/02/20 02:56:59;;;;;;;6.05;1.67;;;5.40;99.90;;;5.92;98.22;99978.03;5072323;28;20078;-76
2022/02/20 02:59:25;;;;;;;6.13;1.65;;;5.40;99.90;;;5.94;99.16;99971.00;5071597;28;20039;-76
2022/02/20 03:01:52;;;;;;;9.55;1.60;;;5.40;99.90;;;5.91;98.08;99973.66;5071689;28;20107;-75
2022/02/20 03:04:18;;;;;;;7.35;1.95;;;5.30;99.90;;;5.83;97.29;99970.63;5072731;28;20020;-77
2022/02/20 03:06:44;;;;;;;3.03;1.08;;;5.20;99.90;;;5.75;97.65;99979.81;5072229;28;20032;-77
2022/02/20 03:09:16;;;;;;;3.90;1.15;;;5.20;99.90;;;5.72;98.03;99982.47;5071902;28;20062;-76
2022/02/20 03:11:45;;;;;;;4.00;1.23;;;5.20;99.90;;;5.74;99.28;99989.31;5072653;28;20400;-77
2022/02/20 03:14:12;;;;;;;3.13;0.82;;;5.20;99.90;;;5.72;99.53;99996.31;5071299;28;20032;-76
2022/02/20 03:16:37;;;;;;;3.22;1.05;;;5.10;99.90;;;5.76;98.85;100003.63;5071952;28;20024;-75
2022/02/20 03:19:03;;;;;;;5.55;1.13;;;5.10;99.90;;;5.82;99.00;99998.66;5070978;28;20101;-77
2022/02/20 03:21:29;;;;;;;6.05;1.42;;;5.10;99.90;;;5.82;98.55;99996.69;5053442;28;20574;-75
2022/02/20 03:23:55;;;;;;;3.72;1.45;;;5.10;99.90;;;5.81;98.46;100002.59;5071239;28;20040;-76
2022/02/20 03:26:24;;;;;;;7.43;1.48;;;5.10;99.90;;;5.87;99.38;100011.53;5071313;28;20384;-77
2022/02/20 03:28:50;;;;;;;5.45;1.50;;;5.10;99.90;;;5.80;100.00;100001.78;5053067;28;20040;-76
2022/02/20 03:31:16;;;;;;;4.03;1.63;;;5.10;99.90;;;5.82;100.00;100004.19;5071006;28;20059;-75
2022/02/20 03:33:42;;;;;;;8.05;2.00;;;5.10;99.90;;;5.86;100.00;100009.91;5053793;28;20395;-78
2022/02/20 03:36:09;;;;;;;3.05;1.60;;;5.10;99.90;;;5.78;100.00;100017.09;5053837;28;20127;-77
2022/02/20 03:38:35;;;;;;;3.70;2.22;;;5.00;99.90;;;5.73;100.00;100009.84;5071437;28;20448;-77
2022/02/20 03:41:07;;;;;;;8.13;2.90;;;5.00;99.90;;;5.78;100.00;100025.44;5071419;28;20094;-76
2022/02/20 03:43:34;;;;;;;4.93;3.05;;;5.00;99.90;;;5.88;100.00;100032.53;5071511;28;20425;-76
2022/02/20 03:46:02;;;;;;;8.43;2.70;;;5.00;99.90;;;5.93;100.00;100044.22;5074532;28;20031;-76
2022/02/20 03:48:28;;;;;;;11.50;3.15;;;5.10;99.90;;;5.99;100.00;100045.63;5056832;28;20086;-76
2022/02/20 03:50:54;;;;;;;8.65;2.63;;;5.20;99.90;;;5.96;100.00;100039.97;5057550;28;20032;-77
2022/02/20 03:53:20;;;;;;;4.50;2.75;;;5.20;99.90;;;5.93;100.00;100047.00;5037648;28;20032;-76
2022/02/20 03:55:46;;;;;;;7.00;3.30;;;5.10;99.90;;;5.85;100.00;100042.31;5037292;28;20082;-76
2022/02/20 03:58:12;;;;;;;7.38;3.58;;;5.10;99.90;;;5.78;100.00;100040.09;5036977;28;20218;-75
2022/02/20 04:00:38;;;;;;;9.15;3.28;;;5.10;99.90;;;5.90;100.00;100022.75;5036956;28;20033;-77
2022/02/20 04:03:03;;;;;;;9.32;3.53;;;5.10;99.90;;;5.97;100.00;100033.28;5057424;28;20025;-76
2022/02/20 04:05:29;;;;;;;11.10;4.30;;;5.10;99.90;;;5.84;100.00;100032.41;5055551;28;20565;-76
2022/02/20 04:07:58;;;;;;;9.85;3.30;;;5.10;99.90;;;5.99;100.00;100045.63;5055495;28;20369;-77
2022/02/20 04:10:24;;;;;;;8.02;2.92;;;5.10;99.90;;;6.01;100.00;100054.41;5037041;28;20719;-77
2022/02/20 04:12:54;;;;;;;8.02;3.70;;;5.10;99.90;;;5.92;100.00;100064.78;5055009;28;20044;-77
2022/02/20 04:15:23;;;;;;;6.75;3.20;;;5.10;99.90;;;5.86;100.00;100068.09;5054646;28;20033;-76
2022/02/20 04:17:52;;;;;;;6.80;2.95;;;5.10;99.90;;;5.64;100.00;100060.94;5054382;28;20059;-76
2022/02/20 04:20:19;;;;;;;9.60;3.08;;;5.00;99.90;;;5.69;100.00;100063.50;5054385;28;20025;-77
2022/02/20 04:22:48;;;;;;;7.72;2.60;;;4.90;99.90;;;5.67;100.00;100063.84;5054427;28;20029;-77
2022/02/20 04:25:15;;;;;;;5.50;3.40;;;4.90;99.90;;;5.66;100.00;100072.47;5054450;28;20025;-76
2022/02/20 04:27:43;;;;;;;6.00;3.13;;;5.00;99.90;;;5.68;100.00;100078.50;5052154;22;20038;-84
2022/02/20 04:30:10;;;;;;;7.60;2.95;;;4.90;99.90;;;5.69;100.00;100080.13;5034114;28;20033;-85
2022/02/20 04:32:37;;;;;;;7.82;3.60;;;4.90;99.90;;;5.61;100.00;100073.53;5029522;28;20041;-84
2022/02/20 04:35:04;;;;;;;4.90;2.88;;;4.90;99.90;;;5.62;100.00;100058.50;5047807;28;20034;-83
2022/02/20 04:37:30;;;;;;;5.25;3.00;;;4.90;99.90;;;5.61;100.00;100048.59;5031074;28;20075;-85
2022/02/20 04:39:56;;;;;;;6.68;2.70;;;4.90;99.90;;;5.62;100.00;100049.41;5031437;28;20030;-84
2022/02/20 04:42:22;;;;;;;8.50;3.33;;;4.90;99.90;;;5.57;100.00;100042.09;5053239;28;20040;-84
2022/02/20 04:44:48;;;;;;;8.88;2.83;;;4.90;99.90;;;5.60;100.00;100044.19;5050578;28;20041;-81
2022/02/20 04:47:14;;;;;;;4.40;2.45;;;4.80;99.90;;;5.53;100.00;100043.09;5044360;28;20191;-83
2022/02/20 04:49:40;;;;;;;7.32;1.75;;;4.80;99.90;;;5.48;100.00;100052.44;5051735;28;20043;-81
2022/02/20 04:52:09;;;;;;;4.82;2.78;;;4.80;99.90;;;5.58;100.00;100049.25;5047207;28;20064;-81
2022/02/20 04:54:35;;;;;;;4.55;2.35;;;4.80;99.90;;;5.57;100.00;100055.13;5065391;28;20017;-82
2022/02/20 04:57:01;;;;;;;6.75;2.42;;;4.90;99.90;;;5.56;100.00;100050.72;5047502;28;20032;-84
2022/02/20 04:59:27;;;;;;;6.90;2.97;;;4.80;99.90;;;5.65;100.00;100048.72;5047946;28;20055;-83
2022/02/20 05:01:52;;;;;;;12.82;2.60;;;4.80;99.90;;;5.49;100.00;100044.94;5048362;28;20021;-81
2022/02/20 05:04:18;;;;;;;5.80;2.92;;;4.70;99.90;;;5.31;100.00;100042.31;5066977;28;20025;-83
2022/02/20 05:06:44;;;;;;;6.55;3.05;;;4.70;99.90;;;5.28;100.00;100036.63;5048859;28;20139;-82
2022/02/20 05:09:10;;;;;;;6.43;4.25;;;4.60;99.90;;;5.37;100.00;100040.16;5066829;28;20029;-81
2022/02/20 05:11:36;;;;;;;7.00;3.42;;;4.60;99.90;;;5.37;100.00;100040.16;5049136;28;20029;-84
2022/02/20 05:14:02;;;;;;;8.82;3.10;;;4.60;99.90;;;5.33;100.00;100028.94;5066032;28;20092;-84
2022/02/20 05:16:31;;;;;;;7.40;3.00;;;4.60;99.90;;;5.26;100.00;100023.16;5067851;28;20112;-84
2022/02/20 05:18:58;;;;;;;6.72;2.92;;;4.50;99.90;;;5.30;100.00;100024.06;5068718;28;20044;-84
2022/02/20 05:21:24;;;;;;;13.93;2.90;;;4.60;99.90;;;5.31;100.00;100017.38;5052580;28;20033;-85
2022/02/20 05:23:50;;;;;;;6.65;2.00;;;4.50;99.90;;;5.28;100.00;100014.50;5070701;28;20266;-84
2022/02/20 05:26:16;;;;;;;5.65;2.45;;;4.60;99.90;;;5.28;100.00;100008.94;5067073;28;20033;-84
2022/02/20 05:28:43;;;;;;;9.07;2.47;;;4.60;99.90;;;5.29;100.00;100014.16;5063811;28;20202;-83
2022/02/20 05:31:09;;;;;;;10.85;2.38;;;4.60;99.90;;;5.29;100.00;100014.16;5064419;28;20033;-83
2022/02/20 05:33:35;;;;;;;8.85;2.65;;;4.60;99.90;;;5.34;100.00;100013.13;5063755;28;20436;-82
2022/02/20 05:36:01;;;;;;;5.72;1.85;;;4.60;99.90;;;5.31;100.00;99998.00;5064598;28;20035;-82
2022/02/20 05:38:27;;;;;;;6.63;2.38;;;4.60;99.90;;;5.37;100.00;99995.84;5044764;28;20029;-81
2022/02/20 05:40:53;;;;;;;7.03;2.55;;;4.60;99.90;;;5.30;100.00;99999.16;5045059;28;20087;-83
2022/02/20 05:43:19;;;;;;;6.97;2.40;;;4.60;99.90;;;5.35;100.00;99991.78;5044758;28;20025;-84
2022/02/20 05:45:45;;;;;;;5.13;2.35;;;4.60;99.90;;;5.45;100.00;99986.66;5045363;28;20029;-82
2022/02/20 05:48:11;;;;;;;6.53;2.78;;;4.70;99.90;;;5.33;100.00;99973.53;5045216;28;20025;-85
2022/02/20 05:50:37;;;;;;;5.72;2.50;;;4.60;99.90;;;5.36;100.00;99974.03;5044522;28;20032;-84
2022/02/20 05:53:03;;;;;;;9.63;2.85;;;4.70;99.90;;;5.33;100.00;99965.25;5045198;28;20040;-85
2022/02/20 05:55:29;;;;;;;8.10;3.28;;;4.70;99.90;;;5.24;100.00;99972.81;5045836;28;20033;-82
2022/02/20 05:57:57;;;;;;;5.57;3.03;;;4.70;99.90;;;5.30;100.00;99965.09;5045434;28;20061;-83
2022/02/20 06:00:28;;;;;;;9.23;2.88;;;4.70;99.90;;;5.33;100.00;99956.94;5045629;28;20021;-83
2022/02/20 06:02:55;;;;;;;9.60;3.17;;;4.70;99.90;;;5.25;100.00;99960.59;5063775;28;20025;-82
2022/02/20 06:05:21;;;;;;;7.70;3.78;;;4.60;99.90;;;5.27;100.00;99957.47;5062660;28;20078;-83
2022/02/20 06:07:47;;;;;;;13.27;3.83;;;4.70;99.90;;;5.24;100.00;99958.97;5061499;28;20021;-86
2022/02/20 06:10:13;;;;;;;9.52;3.53;;;4.70;99.90;;;5.25;100.00;99944.00;5062118;28;20033;-84
2022/02/20 06:12:39;;;;;;;9.82;3.40;;;4.70;99.90;;;5.23;100.00;99939.94;5064169;28;20021;-84
2022/02/20 06:15:08;;;;;;;12.50;4.13;;;4.70;99.90;;;5.20;100.00;99929.56;5045610;28;20029;-84
2022/02/20 06:17:35;;;;;;;13.57;3.92;;;4.70;99.90;;;5.20;100.00;99915.72;5044186;28;20025;-81
2022/02/20 06:20:03;;;;;;;7.05;4.00;;;4.70;99.90;;;5.20;100.00;99908.19;5044958;28;20064;-81
2022/02/20 06:22:29;;;;;;;11.73;4.07;;;4.60;99.90;;;5.22;100.00;99891.25;5045288;28;20067;-82
2022/02/20 06:24:54;;;;;;;10.93;3.63;;;4.60;99.90;;;5.22;100.00;99880.19;5061898;28;20024;-83
2022/02/20 06:27:20;;;;;;;8.70;3.97;;;4.60;99.90;;;5.12;100.00;99878.66;5044719;28;20041;-81
2022/02/20 06:29:46;;;;;;;9.85;4.28;;;4.60;99.90;;;5.25;100.00;99876.72;5062591;28;20033;-83
2022/02/20 06:32:12;;;;;;;14.48;4.90;;;4.60;99.90;;;5.21;100.00;99875.78;5045673;28;20044;-83
2022/02/20 06:34:38;;;;;;;15.07;4.63;;;4.70;99.90;;;5.38;100.00;99861.78;5061856;28;20385;-84
2022/02/20 06:37:04;;;;;;;13.98;3.78;;;4.70;99.90;;;5.40;100.00;99862.22;5063110;28;20064;-83
2022/02/20 06:39:32;;;;;;;14.50;4.28;;;4.80;99.90;;;5.40;100.00;99862.22;5046582;28;20033;-83
2022/02/20 06:41:59;;;;;;;14.90;4.35;;;4.80;99.90;;;5.52;100.00;99856.72;5049438;28;20025;-83
2022/02/20 06:44:25;;;;;;;13.25;5.07;;;4.90;99.90;;;5.58;100.00;99847.06;5052902;28;20025;-79
2022/02/20 06:46:51;;;;;;;20.30;4.75;;;4.90;99.90;;;5.63;100.00;99835.72;5057216;28;20092;-80
2022/02/20 06:49:17;;;;;;;12.65;4.47;;;5.00;99.90;;;5.65;100.00;99821.56;5068761;28;20489;-83
2022/02/20 06:51:43;;;;;;;10.38;4.72;;;5.00;99.90;;;5.71;100.00;99811.84;5053908;28;20036;-82
2022/02/20 06:54:09;;;;;;;14.93;5.40;;;5.10;99.90;;;5.75;100.00;99796.94;5052331;28;20024;-83
2022/02/20 06:56:35;;;;;;;12.93;6.22;;;5.10;99.90;;;5.80;100.00;99804.22;5051521;28;20096;-84
2022/02/20 06:59:00;;;;;;;23.83;6.05;;;5.20;99.90;;;5.90;100.00;99800.22;5047737;28;20503;-82
2022/02/20 07:01:26;;;;;;;20.38;6.30;;;5.20;99.90;;;5.92;100.00;99790.41;5047775;28;20029;-84
2022/02/20 07:03:52;;;;;;;17.30;5.70;;;5.30;99.90;;;5.86;100.00;99788.19;5065703;28;20457;-81
2022/02/20 07:06:18;;;;;;;14.60;5.10;;;5.30;99.90;;;5.89;100.00;99777.22;5050079;28;20017;-82
2022/02/20 07:08:44;;;;;;;18.05;5.40;;;5.30;99.90;;;5.99;100.00;99779.53;5068306;28;20088;-82
2022/02/20 07:11:10;;;;;;;18.38;5.47;;;5.40;99.90;;;6.03;100.00;99785.19;5051676;28;20040;-83
2022/02/20 07:13:36;;;;;;;13.18;4.90;;;5.50;99.90;;;6.06;100.00;99778.94;5053548;28;20033;-81
2022/02/20 07:16:02;;;;;;;18.05;6.38;;;5.50;99.90;;;6.10;100.00;99749.38;5074344;28;20033;-83
2022/02/20 07:18:27;;;;;;;15.13;5.13;;;5.60;99.90;;;6.20;100.00;99748.88;5074719;28;20021;-83
2022/02/20 07:20:53;;;;;;;17.25;5.18;;;5.60;99.90;;;6.32;100.00;99754.41;5078152;28;20299;-79
2022/02/20 07:23:19;;;;;;;19.27;5.60;;;5.70;99.90;;;6.30;100.00;99734.50;5075934;28;20048;-83
2022/02/20 07:25:45;;;;;;;18.13;5.10;;;5.80;99.90;;;6.36;100.00;99745.00;5066986;28;20369;-87
2022/02/20 07:28:11;;;;;;;19.20;4.93;;;5.80;99.90;;;6.47;100.00;99714.81;5049065;28;20060;-84
2022/02/20 07:30:37;;;;;;;14.18;4.60;;;5.90;99.90;;;6.60;100.00;99726.66;5067432;28;20108;-84
2022/02/20 07:33:05;;;;;;;16.73;5.07;;;6.00;99.90;;;6.60;100.00;99721.94;5048069;28;20032;-85
2022/02/20 07:35:32;;;;;;;19.73;4.60;;;6.10;99.90;;;6.64;100.00;99714.50;5047914;28;20029;-85
2022/02/20 07:37:58;;;;;;;17.08;4.75;;;6.20;99.90;;;6.67;100.00;99715.78;5047710;28;20064;-85
2022/02/20 07:40:24;;;;;;;16.30;5.68;;;6.10;99.90;;;6.77;100.00;99720.81;5047500;28;20025;-85
2022/02/20 07:42:51;;;;;;;13.95;4.80;;;6.20;99.90;;;6.83;100.00;99702.72;5047694;28;20021;-84
2022/02/20 07:45:17;;;;;;;15.05;4.53;;;6.20;99.90;;;6.81;100.00;99716.94;5046573;28;20459;-83
2022/02/20 07:47:57;;;;;;;13.30;4.78;;;6.30;99.90;;;6.82;100.00;99712.22;5062088;28;20021;-82
2022/02/20 07:50:28;;;;;;;14.82;4.13;;;6.30;99.90;;;6.82;100.00;99721.34;5045765;28;20036;-83
2022/02/20 07:52:57;;;;;;;18.17;4.85;;;6.30;99.90;;;6.89;100.00;99723.50;5045788;28;20033;-83
2022/02/20 07:55:27;;;;;;;13.48;4.03;;;6.30;99.90;;;6.90;100.00;99725.13;5045727;28;20029;-83
2022/02/20 07:57:54;;;;;;;16.55;4.35;;;6.30;99.90;;;6.92;100.00;99713.66;5046099;28;20033;-86
2022/02/20 08:00:27;;;;;;;15.88;4.50;;;6.40;99.90;;;6.92;100.00;99710.88;5063912;28;20029;-84
2022/02/20 08:02:54;;;;;;;15.75;3.85;;;6.40;99.90;;;7.00;100.00;99702.38;5063767;28;20483;-84
2022/02/20 08:05:20;;;;;;;13.13;4.40;;;6.30;99.90;;;7.05;100.00;99702.13;5065599;28;20076;-82
2022/02/20 08:07:46;;;;;;;23.27;3.70;;;6.40;99.90;;;7.09;100.00;99693.88;5047433;28;20033;-83
2022/02/20 08:10:12;;;;;;;15.48;4.18;;;6.40;99.90;;;7.18;100.00;99691.72;5047517;28;20021;-83
2022/02/20 08:12:38;;;;;;;13.73;3.10;;;6.50;99.90;;;7.26;100.00;99699.06;5047291;28;20511;-85
2022/02/20 08:15:05;;;;;;;12.73;3.88;;;6.50;99.90;;;7.34;100.00;99698.91;5048568;28;20025;-83
2022/02/20 08:17:31;;;;;;;10.52;2.85;;;6.60;99.90;;;7.52;100.00;99696.53;5065024;28;20029;-85
2022/02/20 08:19:57;;;;;;;16.13;3.50;;;6.80;99.90;;;7.56;100.00;99696.63;5050186;28;20051;-85
2022/02/20 08:22:23;;;;;;;13.25;3.72;;;6.90;99.90;;;7.62;100.00;99681.28;5050489;28;20036;-84
2022/02/20 08:24:50;;;;;;;13.02;3.30;;;7.00;99.90;;;7.78;100.00;99693.16;5053608;28;20025;-84
2022/02/20 08:27:16;;;;;;;12.05;2.83;;;7.10;99.90;;;7.77;100.00;99669.34;5053206;28;20036;-82
2022/02/20 08:29:42;;;;;;;14.57;3.38;;;7.20;99.90;;;7.85;100.00;99679.44;5045617;28;20025;-83
2022/02/20 08:32:08;;;;;;;12.25;2.75;;;7.20;99.90;;;7.90;100.00;99673.56;5046589;28;20029;-84
2022/02/20 08:34:36;;;;;;;8.57;2.42;;;7.30;99.90;;;7.94;100.00;99663.34;5048585;28;20035;-83
2022/02/20 08:37:06;;;;;;;5.95;2.15;;;7.30;99.90;;;8.00;100.00;99674.97;5049145;28;20025;-83
2022/02/20 08:39:34;;;;;;;10.70;2.50;;;7.40;99.90;;;8.07;100.00;99680.69;5065608;28;20029;-86
2022/02/20 08:42:00;;;;;;;7.47;2.95;;;7.40;99.90;;;8.10;100.00;99697.47;5067140;28;20036;-84
2022/02/20 08:44:26;;;;;;;7.57;2.50;;;7.50;99.90;;;8.05;100.00;99672.75;5050356;28;20040;-84
2022/02/20 08:46:52;;;;;;;8.27;2.80;;;7.50;99.90;;;8.16;100.00;99681.28;5067499;28;20029;-87
2022/02/20 08:49:20;;;;;;;13.70;3.28;;;7.60;99.90;;;8.27;100.00;99680.34;5058717;28;20039;-83
2022/02/20 08:51:47;;;;;;;6.78;2.28;;;7.60;99.90;;;8.21;100.00;99681.00;5070607;28;20481;-86
2022/02/20 08:54:13;;;;;;;9.25;2.72;;;7.60;99.90;;;8.24;100.00;99660.81;5062426;28;20032;-84
2022/02/20 08:56:39;;;;;;;6.93;2.42;;;7.60;99.90;;;8.30;100.00;99665.75;5045114;28;20075;-83
2022/02/20 08:59:05;;;;;;;6.03;2.15;;;7.70;99.90;;;8.29;100.00;99686.38;5065317;28;20052;-85
2022/02/20 09:01:31;;;;;;;6.88;2.03;;;7.70;99.90;;;8.37;100.00;99670.66;5048728;28;20025;-83
2022/02/20 09:04:03;;;;;;;7.30;2.40;;;7.70;99.90;;;8.37;100.00;99679.81;5065649;28;20025;-85
2022/02/20 09:06:33;;;;;;;6.05;2.20;;;7.70;99.90;;;8.46;100.00;99663.69;5065827;28;20028;-84
2022/02/20 09:09:00;;;;;;;10.40;2.58;;;7.70;99.90;;;8.54;100.00;99681.31;5064354;28;20021;-83
2022/02/20 09:11:30;;;;;;;10.30;3.55;;;7.80;99.90;;;8.46;100.00;99669.25;5046197;28;20037;-85
2022/02/20 09:13:57;;;;;;;6.20;2.28;;;7.80;99.90;;;8.50;100.00;99660.97;5046195;28;20048;-85
2022/02/20 09:16:23;;;;;;;7.07;2.33;;;7.80;99.90;;;8.53;100.00;99660.22;5045763;28;20029;-83
2022/02/20 09:18:49;;;;;;;6.40;2.55;;;7.90;99.90;;;8.53;100.00;99654.66;5045500;28;20131;-82
2022/02/20 09:21:15;;;;;;;8.30;2.55;;;7.90;99.90;;;8.58;100.00;99656.31;5045860;28;20101;-85
2022/02/20 09:23:41;;;;;;;9.02;2.40;;;8.00;99.90;;;8.69;100.00;99666.50;5065306;28;20033;-84
2022/02/20 09:26:07;;;;;;;7.35;2.92;;;8.00;99.90;;;8.65;100.00;99665.63;5064174;28;20025;-84
2022/02/20 09:28:34;;;;;;;7.43;2.42;;;8.00;99.90;;;8.75;100.00;99661.44;5049876;28;20029;-85
2022/02/20 09:31:01;;;;;;;4.88;1.83;;;8.00;99.90;;;8.81;100.00;99648.81;5051891;28;20118;-84
2022/02/20 09:33:28;;;;;;;5.10;2.30;;;8.10;99.90;;;8.80;100.00;99655.53;5062801;28;20049;-85
2022/02/20 09:35:54;;;;;;;8.73;2.65;;;8.20;99.90;;;8.87;100.00;99647.31;5044473;28;20037;-83
2022/02/20 09:38:20;;;;;;;8.80;2.92;;;8.20;99.90;;;8.93;100.00;99643.06;5045771;28;20057;-83
2022/02/20 09:40:46;;;;;;;9.02;2.40;;;8.20;99.90;;;8.93;100.00;99652.22;5043274;28;20060;-84
2022/02/20 09:43:18;;;;;;;9.45;2.58;;;8.30;99.90;;;8.98;100.00;99660.28;5041042;28;20025;-85
2022/02/20 09:45:50;;;;;;;6.45;2.63;;;8.30;99.90;;;8.93;100.00;99651.41;5043087;28;20040;-84
2022/02/20 09:48:19;;;;;;;6.65;2.03;;;8.40;99.90;;;8.99;100.00;99659.09;5061443;28;20055;-86
2022/02/20 09:50:46;;;;;;;5.28;1.98;;;8.30;99.90;;;9.08;100.00;99660.84;5042573;28;20160;-85
2022/02/20 09:53:13;;;;;;;5.45;1.80;;;8.40;99.90;;;9.09;100.00;99646.53;5040665;28;20029;-82
2022/02/20 09:55:44;;;;;;;3.10;1.42;;;8.50;99.90;;;9.17;100.00;99653.84;5057587;28;20028;-83
2022/02/20 09:58:09;;;;;;;5.22;1.60;;;8.50;99.90;;;9.18;100.00;99657.44;5038519;28;20033;-85
2022/02/20 10:00:35;;;;;;;6.75;1.65;;;8.50;99.90;;;9.25;100.00;99652.75;5038409;28;20029;-86
2022/02/20 10:03:02;;;;;;;4.65;1.63;;;8.60;99.90;;;9.28;100.00;99649.22;5060924;28;20124;-82
2022/02/20 10:05:28;;;;;;;5.85;1.65;;;8.60;99.90;;;9.17;100.00;99647.44;5044047;28;20138;-84
2022/02/20 10:07:55;;;;;;;9.77;2.78;;;8.50;99.90;;;9.25;100.00;99646.38;5061406;28;20032;-86
2022/02/20 10:10:27;;;;;;;6.72;1.50;;;8.50;99.90;;;9.17;100.00;99648.25;5060067;28;20025;-84
2022/02/20 10:13:05;;;;;;;6.53;2.33;;;8.50;99.90;;;9.20;100.00;99639.16;5062582;28;20079;-83
2022/02/20 10:15:40;;;;;;;5.57;1.92;;;8.50;99.90;;;9.17;100.00;99625.16;5044873;28;20048;-84
2022/02/20 10:18:20;;;;;;;2.93;1.80;;;8.50;99.90;;;9.23;100.00;99632.03;5044655;28;20067;-86
2022/02/20 10:20:58;;;;;;;11.15;1.85;;;8.60;99.90;;;9.22;100.00;99611.72;5043145;28;20288;-85
2022/02/20 10:23:24;;;;;;;8.80;1.52;;;8.60;99.90;;;9.40;100.00;99617.56;5044093;28;20029;-87